AMIS Telekom d.o.o. Speed Test Log

Averages  Max Speed    
1 to 25 of 6071** for Host AMIS Telekom d.o.o.
Time
  
    Size    Speed   User ConnectID    
5/9/17 12:25:15 pm HR 150 MB 75.2 Mbps 9.4 MB/s1725231111259npHRZ3qGe 
5/9/17 12:23:29 pm HR 43 MB 71.94 Mbps 8.99 MB/s1725231111259q94ObU6Tl 
5/9/17 11:09:33 am HR 4.3 MB 2.56 Mbps 320 kB/s17252246485216YlUMIe5O1 
5/7/17 7:24:38 pm HR 22.8 MB 32.73 Mbps 4.09 MB/s17252247308171SMxOuCaTv 
5/7/17 7:23:56 pm HR 31.9 MB 51.75 Mbps 6.47 MB/s17252247308171xQHDz4W6f 
5/7/17 4:10:51 pm HR 19 MB 14.38 Mbps 1.8 MB/s17252245659694H1mM09cSs 
5/6/17 7:14:08 pm HR 6.3 MB 5.53 Mbps 691 kB/s172522884989rnEqD3V91 
5/5/17 7:24:25 pm HR 1.4 MB 1.1 Mbps 137 kB/s1725224535053FSeAPJ80Q 
5/5/17 7:23:48 pm HR 19.1 MB 16.36 Mbps 2.05 MB/s1725224535053yB4P8fVX3 
5/5/17 1:05:38 pm HR 43 MB 16.76 Mbps 2.09 MB/s17252247308171RjgkQyiJT 
5/4/17 8:12:54 pm HR 1.3 MB 1.1 Mbps 138 kB/s1725232490491xuvSsbdV5 
5/4/17 7:49:28 pm HR 3 MB 3 Mbps 375 kB/s1725231025240LZ0sCueiM 
5/4/17 7:48:32 pm HR 480 kB 483 kbps 60 kB/s1725231025240Y7RBZWuUF 
5/4/17 7:47:48 pm HR 1.3 MB 1.17 Mbps 146 kB/s17252310252405sV4Ha2yi 
5/4/17 7:30:27 pm HR 1.3 MB 1.27 Mbps 159 kB/s172522884439zP5QWseAU 
5/3/17 8:19:07 pm HR 6.3 MB 12.07 Mbps 1.51 MB/s172522730651ClgGj0EcA 
5/3/17 8:18:18 pm HR 1.2 MB 1.16 Mbps 145 kB/s172522730651ofd0sTAeD 
5/3/17 5:15:00 pm HR 6.3 MB 8.2 Mbps 1.03 MB/s17252245566615TC6egZbJi 
5/3/17 1:42:31 pm HR 42.9 MB 22.14 Mbps 2.77 MB/s1725227632365EGTcAqFid 
5/3/17 12:55:40 pm HR 4.5 MB 2.63 Mbps 328 kB/s17252245666939fY6ugm3Q1 
5/2/17 11:31:22 pm HR 30.6 MB 12.35 Mbps 1.54 MB/s1725224566691KCAPyRjcJ 
5/2/17 6:21:43 pm HR 2.5 MB 3.07 Mbps 384 kB/s1725224558134lSqoVMrG 
5/2/17 3:06:40 pm HR 6.3 MB 8.89 Mbps 1.11 MB/sblochert1725224691042jn4Q20Ldw 
5/2/17 1:29:51 pm HR 2.4 MB 4.92 Mbps 615 kB/s17252302848209khtIeP7w 
5/2/17 1:29:24 pm HR 31.6 MB 16.97 Mbps 2.12 MB/s1725230284820fb0W1HSeu 
  
** Partial Results: The most recent results have been displayed. Results over 50 Mbps are highlighted.
Calculated from graphed results above not entire query.
Displaying Internet Speed Test results for Host AMIS Telekom d.o.o.

Minimum

Min 1.17 Mbps : 0.48 Mbps

Average

Avg 19.07 Mbps : 6.37 Mbps

Maximum

Max 75.2 Mbps : 32.73 Mbps

Minimum

Min: 1.17 Mbps : 0.48 Mbps |

Average

Avg: 19.07 Mbps : 6.37 Mbps |

Maximum

Max: 75.2 Mbps : 32.73 Mbps